sensor_id;sensor_type;location;lat;lon;timestamp;temperature;humidity
81321;DHT22;70785;52.570;5.638;2023-07-31T00:00:36;15.60;75.20
81321;DHT22;70785;52.570;5.638;2023-07-31T00:03:02;15.60;75.30
81321;DHT22;70785;52.570;5.638;2023-07-31T00:05:28;15.60;75.30
81321;DHT22;70785;52.570;5.638;2023-07-31T00:07:54;15.60;75.30
81321;DHT22;70785;52.570;5.638;2023-07-31T00:10:21;15.60;75.40
81321;DHT22;70785;52.570;5.638;2023-07-31T00:12:47;15.60;75.40
81321;DHT22;70785;52.570;5.638;2023-07-31T00:15:16;15.60;75.40
81321;DHT22;70785;52.570;5.638;2023-07-31T00:17:42;15.60;75.40
81321;DHT22;70785;52.570;5.638;2023-07-31T00:20:08;15.50;75.40
81321;DHT22;70785;52.570;5.638;2023-07-31T00:22:35;15.50;75.50
81321;DHT22;70785;52.570;5.638;2023-07-31T00:25:02;15.50;75.60
81321;DHT22;70785;52.570;5.638;2023-07-31T00:27:28;15.50;75.70
81321;DHT22;70785;52.570;5.638;2023-07-31T00:29:54;15.50;75.70
81321;DHT22;70785;52.570;5.638;2023-07-31T00:32:20;15.50;75.70
81321;DHT22;70785;52.570;5.638;2023-07-31T00:34:46;15.50;75.80
81321;DHT22;70785;52.570;5.638;2023-07-31T00:37:12;15.60;75.80
81321;DHT22;70785;52.570;5.638;2023-07-31T00:39:38;15.60;75.90
81321;DHT22;70785;52.570;5.638;2023-07-31T00:42:05;15.60;75.90
81321;DHT22;70785;52.570;5.638;2023-07-31T00:44:31;15.60;75.90
81321;DHT22;70785;52.570;5.638;2023-07-31T00:46:58;15.60;75.80
81321;DHT22;70785;52.570;5.638;2023-07-31T00:49:25;15.60;75.90
81321;DHT22;70785;52.570;5.638;2023-07-31T00:51:52;15.60;75.90
81321;DHT22;70785;52.570;5.638;2023-07-31T00:54:19;15.70;75.90
81321;DHT22;70785;52.570;5.638;2023-07-31T00:56:46;15.70;76.00
81321;DHT22;70785;52.570;5.638;2023-07-31T00:59:14;15.80;76.00
81321;DHT22;70785;52.570;5.638;2023-07-31T01:01:40;15.80;76.10
81321;DHT22;70785;52.570;5.638;2023-07-31T01:04:07;15.80;76.10
81321;DHT22;70785;52.570;5.638;2023-07-31T01:06:40;15.80;76.10
81321;DHT22;70785;52.570;5.638;2023-07-31T01:09:11;15.90;76.20
81321;DHT22;70785;52.570;5.638;2023-07-31T01:11:53;15.90;76.20
81321;DHT22;70785;52.570;5.638;2023-07-31T01:14:22;16.00;76.20
81321;DHT22;70785;52.570;5.638;2023-07-31T01:16:48;16.00;76.20
81321;DHT22;70785;52.570;5.638;2023-07-31T01:19:17;16.00;76.40
81321;DHT22;70785;52.570;5.638;2023-07-31T01:24:41;16.00;76.40
81321;DHT22;70785;52.570;5.638;2023-07-31T01:27:14;16.00;76.50
81321;DHT22;70785;52.570;5.638;2023-07-31T01:29:51;16.10;76.40
81321;DHT22;70785;52.570;5.638;2023-07-31T01:32:19;16.10;76.50
81321;DHT22;70785;52.570;5.638;2023-07-31T01:34:46;16.20;76.50
81321;DHT22;70785;52.570;5.638;2023-07-31T01:37:13;16.20;76.50
81321;DHT22;70785;52.570;5.638;2023-07-31T01:39:39;16.30;76.60
81321;DHT22;70785;52.570;5.638;2023-07-31T01:42:05;16.30;76.70
81321;DHT22;70785;52.570;5.638;2023-07-31T01:44:32;16.40;76.70
81321;DHT22;70785;52.570;5.638;2023-07-31T01:46:58;16.40;76.80
81321;DHT22;70785;52.570;5.638;2023-07-31T01:49:26;16.50;76.80
81321;DHT22;70785;52.570;5.638;2023-07-31T01:51:52;16.50;76.80
81321;DHT22;70785;52.570;5.638;2023-07-31T01:54:18;16.50;76.70
81321;DHT22;70785;52.570;5.638;2023-07-31T01:56:44;16.50;76.70
81321;DHT22;70785;52.570;5.638;2023-07-31T01:59:10;16.50;76.80
81321;DHT22;70785;52.570;5.638;2023-07-31T02:01:36;16.50;76.80
81321;DHT22;70785;52.570;5.638;2023-07-31T02:04:03;16.50;76.70
81321;DHT22;70785;52.570;5.638;2023-07-31T02:06:30;16.50;76.60
81321;DHT22;70785;52.570;5.638;2023-07-31T02:08:56;16.50;76.60
81321;DHT22;70785;52.570;5.638;2023-07-31T02:11:23;16.50;76.60
81321;DHT22;70785;52.570;5.638;2023-07-31T02:13:50;16.50;76.60
81321;DHT22;70785;52.570;5.638;2023-07-31T02:16:16;16.50;76.60
81321;DHT22;70785;52.570;5.638;2023-07-31T02:18:42;16.40;76.60
81321;DHT22;70785;52.570;5.638;2023-07-31T02:21:08;16.40;76.70
81321;DHT22;70785;52.570;5.638;2023-07-31T02:23:34;16.40;76.80
81321;DHT22;70785;52.570;5.638;2023-07-31T02:26:00;16.40;76.90
81321;DHT22;70785;52.570;5.638;2023-07-31T02:28:27;16.40;77.00
81321;DHT22;70785;52.570;5.638;2023-07-31T02:30:53;16.40;77.00
81321;DHT22;70785;52.570;5.638;2023-07-31T02:33:19;16.40;77.00
81321;DHT22;70785;52.570;5.638;2023-07-31T02:35:46;16.40;77.20
81321;DHT22;70785;52.570;5.638;2023-07-31T02:38:12;16.30;77.40
81321;DHT22;70785;52.570;5.638;2023-07-31T02:40:40;16.20;77.50
81321;DHT22;70785;52.570;5.638;2023-07-31T02:43:07;16.30;77.70
81321;DHT22;70785;52.570;5.638;2023-07-31T02:45:34;16.20;77.70
81321;DHT22;70785;52.570;5.638;2023-07-31T02:48:00;16.20;77.70
81321;DHT22;70785;52.570;5.638;2023-07-31T02:50:26;16.20;77.70
81321;DHT22;70785;52.570;5.638;2023-07-31T02:52:54;16.20;77.80
81321;DHT22;70785;52.570;5.638;2023-07-31T02:55:20;16.20;77.80
81321;DHT22;70785;52.570;5.638;2023-07-31T02:57:46;16.20;77.90
81321;DHT22;70785;52.570;5.638;2023-07-31T03:00:13;16.10;78.00
81321;DHT22;70785;52.570;5.638;2023-07-31T03:02:39;16.10;78.00
81321;DHT22;70785;52.570;5.638;2023-07-31T03:05:05;16.10;78.00
81321;DHT22;70785;52.570;5.638;2023-07-31T03:07:31;16.10;78.10
81321;DHT22;70785;52.570;5.638;2023-07-31T03:09:58;16.10;78.20
81321;DHT22;70785;52.570;5.638;2023-07-31T03:12:24;16.10;78.20
81321;DHT22;70785;52.570;5.638;2023-07-31T03:14:50;16.20;78.30
81321;DHT22;70785;52.570;5.638;2023-07-31T03:17:16;16.20;78.30
81321;DHT22;70785;52.570;5.638;2023-07-31T03:19:42;16.20;78.30
81321;DHT22;70785;52.570;5.638;2023-07-31T03:22:08;16.20;78.30
81321;DHT22;70785;52.570;5.638;2023-07-31T03:24:34;16.30;78.20
81321;DHT22;70785;52.570;5.638;2023-07-31T03:27:00;16.30;78.30
81321;DHT22;70785;52.570;5.638;2023-07-31T03:29:27;16.30;78.30
81321;DHT22;70785;52.570;5.638;2023-07-31T03:31:53;16.40;78.30
81321;DHT22;70785;52.570;5.638;2023-07-31T03:34:19;16.30;78.30
81321;DHT22;70785;52.570;5.638;2023-07-31T03:36:45;16.30;78.30
81321;DHT22;70785;52.570;5.638;2023-07-31T03:39:11;16.30;78.30
81321;DHT22;70785;52.570;5.638;2023-07-31T03:41:37;16.30;78.30
81321;DHT22;70785;52.570;5.638;2023-07-31T03:44:03;16.30;78.30
81321;DHT22;70785;52.570;5.638;2023-07-31T03:46:31;16.30;78.40
81321;DHT22;70785;52.570;5.638;2023-07-31T03:48:57;16.30;78.30
81321;DHT22;70785;52.570;5.638;2023-07-31T03:51:23;16.30;78.30
81321;DHT22;70785;52.570;5.638;2023-07-31T03:53:49;16.30;78.30
81321;DHT22;70785;52.570;5.638;2023-07-31T03:56:15;16.30;78.30
81321;DHT22;70785;52.570;5.638;2023-07-31T03:58:42;16.30;78.30
81321;DHT22;70785;52.570;5.638;2023-07-31T04:01:08;16.40;78.20
81321;DHT22;70785;52.570;5.638;2023-07-31T04:03:34;16.30;78.20
81321;DHT22;70785;52.570;5.638;2023-07-31T04:06:00;16.30;78.20
81321;DHT22;70785;52.570;5.638;2023-07-31T04:08:26;16.30;78.30
81321;DHT22;70785;52.570;5.638;2023-07-31T04:10:52;16.30;78.30
81321;DHT22;70785;52.570;5.638;2023-07-31T04:13:18;16.20;78.20
81321;DHT22;70785;52.570;5.638;2023-07-31T04:15:51;16.20;78.20
81321;DHT22;70785;52.570;5.638;2023-07-31T04:18:17;16.20;78.10
81321;DHT22;70785;52.570;5.638;2023-07-31T04:20:44;16.20;78.10
81321;DHT22;70785;52.570;5.638;2023-07-31T04:23:10;16.20;78.20
81321;DHT22;70785;52.570;5.638;2023-07-31T04:25:36;16.20;78.10
81321;DHT22;70785;52.570;5.638;2023-07-31T04:28:02;16.20;78.20
81321;DHT22;70785;52.570;5.638;2023-07-31T04:30:28;16.20;78.10
81321;DHT22;70785;52.570;5.638;2023-07-31T04:32:54;16.20;78.10
81321;DHT22;70785;52.570;5.638;2023-07-31T04:35:20;16.20;78.10
81321;DHT22;70785;52.570;5.638;2023-07-31T04:37:47;16.20;78.20
81321;DHT22;70785;52.570;5.638;2023-07-31T04:40:15;16.20;78.20
81321;DHT22;70785;52.570;5.638;2023-07-31T04:42:41;16.20;78.20
81321;DHT22;70785;52.570;5.638;2023-07-31T04:45:09;16.20;78.20
81321;DHT22;70785;52.570;5.638;2023-07-31T04:47:35;16.20;78.10
81321;DHT22;70785;52.570;5.638;2023-07-31T04:50:01;16.20;78.20
81321;DHT22;70785;52.570;5.638;2023-07-31T04:52:27;16.20;78.10
81321;DHT22;70785;52.570;5.638;2023-07-31T04:54:53;16.30;78.10
81321;DHT22;70785;52.570;5.638;2023-07-31T04:57:19;16.30;78.00
81321;DHT22;70785;52.570;5.638;2023-07-31T04:59:45;16.30;78.00
81321;DHT22;70785;52.570;5.638;2023-07-31T05:02:12;16.30;78.00
81321;DHT22;70785;52.570;5.638;2023-07-31T05:04:39;16.30;78.00
81321;DHT22;70785;52.570;5.638;2023-07-31T05:07:05;16.30;78.00
81321;DHT22;70785;52.570;5.638;2023-07-31T05:09:31;16.30;78.00
81321;DHT22;70785;52.570;5.638;2023-07-31T05:11:57;16.30;78.00
81321;DHT22;70785;52.570;5.638;2023-07-31T05:14:23;16.40;78.10
81321;DHT22;70785;52.570;5.638;2023-07-31T05:16:50;16.40;78.00
81321;DHT22;70785;52.570;5.638;2023-07-31T05:19:16;16.40;77.90
81321;DHT22;70785;52.570;5.638;2023-07-31T05:21:42;16.40;77.90
81321;DHT22;70785;52.570;5.638;2023-07-31T05:24:08;16.40;77.90
81321;DHT22;70785;52.570;5.638;2023-07-31T05:26:34;16.40;77.70
81321;DHT22;70785;52.570;5.638;2023-07-31T05:29:00;16.40;77.70
81321;DHT22;70785;52.570;5.638;2023-07-31T05:31:26;16.40;77.60
81321;DHT22;70785;52.570;5.638;2023-07-31T05:33:52;16.40;77.60
81321;DHT22;70785;52.570;5.638;2023-07-31T05:36:18;16.40;77.80
81321;DHT22;70785;52.570;5.638;2023-07-31T05:38:44;16.40;77.80
81321;DHT22;70785;52.570;5.638;2023-07-31T05:41:12;16.40;77.70
81321;DHT22;70785;52.570;5.638;2023-07-31T05:43:38;16.40;77.70
81321;DHT22;70785;52.570;5.638;2023-07-31T05:46:04;16.40;77.70
81321;DHT22;70785;52.570;5.638;2023-07-31T05:48:30;16.40;77.60
81321;DHT22;70785;52.570;5.638;2023-07-31T05:50:56;16.40;77.70
81321;DHT22;70785;52.570;5.638;2023-07-31T05:53:22;16.40;77.80
81321;DHT22;70785;52.570;5.638;2023-07-31T05:55:48;16.40;77.80
81321;DHT22;70785;52.570;5.638;2023-07-31T05:58:15;16.40;77.80
81321;DHT22;70785;52.570;5.638;2023-07-31T06:00:41;16.40;77.80
81321;DHT22;70785;52.570;5.638;2023-07-31T06:03:07;16.40;77.80
81321;DHT22;70785;52.570;5.638;2023-07-31T06:05:33;16.30;77.90
81321;DHT22;70785;52.570;5.638;2023-07-31T06:07:59;16.30;77.90
81321;DHT22;70785;52.570;5.638;2023-07-31T06:10:25;16.20;77.90
81321;DHT22;70785;52.570;5.638;2023-07-31T06:12:52;16.30;77.90
81321;DHT22;70785;52.570;5.638;2023-07-31T06:15:18;16.20;77.90
81321;DHT22;70785;52.570;5.638;2023-07-31T06:17:45;16.30;77.90
81321;DHT22;70785;52.570;5.638;2023-07-31T06:20:11;16.30;77.90
81321;DHT22;70785;52.570;5.638;2023-07-31T06:22:37;16.30;77.90
81321;DHT22;70785;52.570;5.638;2023-07-31T06:25:04;16.30;77.90
81321;DHT22;70785;52.570;5.638;2023-07-31T06:27:30;16.30;77.80
81321;DHT22;70785;52.570;5.638;2023-07-31T06:29:56;16.30;77.80
81321;DHT22;70785;52.570;5.638;2023-07-31T06:32:22;16.20;77.80
81321;DHT22;70785;52.570;5.638;2023-07-31T06:34:48;16.20;77.70
81321;DHT22;70785;52.570;5.638;2023-07-31T06:37:14;16.20;77.70
81321;DHT22;70785;52.570;5.638;2023-07-31T06:39:40;16.20;77.70
81321;DHT22;70785;52.570;5.638;2023-07-31T06:42:06;16.10;77.80
81321;DHT22;70785;52.570;5.638;2023-07-31T06:44:32;16.10;77.90
81321;DHT22;70785;52.570;5.638;2023-07-31T06:46:58;16.10;78.00
81321;DHT22;70785;52.570;5.638;2023-07-31T06:49:25;16.10;78.00
81321;DHT22;70785;52.570;5.638;2023-07-31T06:51:53;16.10;78.10
81321;DHT22;70785;52.570;5.638;2023-07-31T06:54:20;16.10;78.10
81321;DHT22;70785;52.570;5.638;2023-07-31T06:56:46;16.10;78.00
81321;DHT22;70785;52.570;5.638;2023-07-31T06:59:12;16.20;78.00
81321;DHT22;70785;52.570;5.638;2023-07-31T07:01:38;16.20;78.00
81321;DHT22;70785;52.570;5.638;2023-07-31T07:04:04;16.20;77.90
81321;DHT22;70785;52.570;5.638;2023-07-31T07:06:30;16.40;78.00
81321;DHT22;70785;52.570;5.638;2023-07-31T07:08:56;16.40;77.80
81321;DHT22;70785;52.570;5.638;2023-07-31T07:11:22;16.40;77.70
81321;DHT22;70785;52.570;5.638;2023-07-31T07:13:48;16.40;77.80
81321;DHT22;70785;52.570;5.638;2023-07-31T07:16:15;16.40;77.80
81321;DHT22;70785;52.570;5.638;2023-07-31T07:18:41;16.50;77.70
81321;DHT22;70785;52.570;5.638;2023-07-31T07:21:07;16.50;77.80
81321;DHT22;70785;52.570;5.638;2023-07-31T07:23:34;16.60;77.80
81321;DHT22;70785;52.570;5.638;2023-07-31T07:26:00;16.60;77.70
81321;DHT22;70785;52.570;5.638;2023-07-31T07:28:26;16.70;77.60
81321;DHT22;70785;52.570;5.638;2023-07-31T07:30:54;16.70;77.60
81321;DHT22;70785;52.570;5.638;2023-07-31T07:33:20;16.80;77.50
81321;DHT22;70785;52.570;5.638;2023-07-31T07:35:46;16.80;77.30
81321;DHT22;70785;52.570;5.638;2023-07-31T07:38:14;16.80;77.40
81321;DHT22;70785;52.570;5.638;2023-07-31T07:40:41;16.80;77.50
81321;DHT22;70785;52.570;5.638;2023-07-31T07:43:08;16.90;77.40
81321;DHT22;70785;52.570;5.638;2023-07-31T07:45:34;17.00;77.30
81321;DHT22;70785;52.570;5.638;2023-07-31T07:48:00;17.00;77.20
81321;DHT22;70785;52.570;5.638;2023-07-31T07:50:26;17.00;77.20
81321;DHT22;70785;52.570;5.638;2023-07-31T07:52:52;17.00;77.20
81321;DHT22;70785;52.570;5.638;2023-07-31T07:55:18;17.00;77.30
81321;DHT22;70785;52.570;5.638;2023-07-31T07:57:44;17.00;77.20
81321;DHT22;70785;52.570;5.638;2023-07-31T08:00:12;17.00;77.30
81321;DHT22;70785;52.570;5.638;2023-07-31T08:02:42;17.00;77.40
81321;DHT22;70785;52.570;5.638;2023-07-31T08:05:09;17.00;77.40
81321;DHT22;70785;52.570;5.638;2023-07-31T08:07:35;17.00;77.50
81321;DHT22;70785;52.570;5.638;2023-07-31T08:10:01;17.00;77.60
81321;DHT22;70785;52.570;5.638;2023-07-31T08:12:27;17.00;77.70
81321;DHT22;70785;52.570;5.638;2023-07-31T08:14:53;17.00;77.70
81321;DHT22;70785;52.570;5.638;2023-07-31T08:17:20;17.00;77.70
81321;DHT22;70785;52.570;5.638;2023-07-31T08:19:46;17.00;77.70
81321;DHT22;70785;52.570;5.638;2023-07-31T08:22:12;17.00;77.70
81321;DHT22;70785;52.570;5.638;2023-07-31T08:24:38;17.10;77.70
81321;DHT22;70785;52.570;5.638;2023-07-31T08:27:06;17.20;77.70
81321;DHT22;70785;52.570;5.638;2023-07-31T08:29:32;17.20;77.60
81321;DHT22;70785;52.570;5.638;2023-07-31T08:31:58;17.20;77.60
81321;DHT22;70785;52.570;5.638;2023-07-31T08:34:24;17.20;77.70
81321;DHT22;70785;52.570;5.638;2023-07-31T08:36:51;17.30;77.60
81321;DHT22;70785;52.570;5.638;2023-07-31T08:39:17;17.30;77.60
81321;DHT22;70785;52.570;5.638;2023-07-31T08:41:43;17.40;77.70
81321;DHT22;70785;52.570;5.638;2023-07-31T08:44:10;17.40;77.60
81321;DHT22;70785;52.570;5.638;2023-07-31T08:46:37;17.40;77.60
81321;DHT22;70785;52.570;5.638;2023-07-31T08:49:05;17.40;77.70
81321;DHT22;70785;52.570;5.638;2023-07-31T08:51:34;17.50;77.70
81321;DHT22;70785;52.570;5.638;2023-07-31T08:54:01;17.50;77.60
81321;DHT22;70785;52.570;5.638;2023-07-31T08:56:28;17.60;77.60
81321;DHT22;70785;52.570;5.638;2023-07-31T08:58:55;17.60;77.60
81321;DHT22;70785;52.570;5.638;2023-07-31T09:01:21;17.60;77.60
81321;DHT22;70785;52.570;5.638;2023-07-31T09:03:49;17.60;77.60
81321;DHT22;70785;52.570;5.638;2023-07-31T09:06:18;17.70;77.60
81321;DHT22;70785;52.570;5.638;2023-07-31T09:08:46;17.80;77.50
81321;DHT22;70785;52.570;5.638;2023-07-31T09:11:13;17.70;77.40
81321;DHT22;70785;52.570;5.638;2023-07-31T09:13:40;17.70;77.50
81321;DHT22;70785;52.570;5.638;2023-07-31T09:16:07;17.80;77.60
81321;DHT22;70785;52.570;5.638;2023-07-31T09:18:53;17.80;77.50
81321;DHT22;70785;52.570;5.638;2023-07-31T09:21:19;17.80;77.50
81321;DHT22;70785;52.570;5.638;2023-07-31T09:23:47;17.80;77.50
81321;DHT22;70785;52.570;5.638;2023-07-31T09:26:35;17.90;77.60
81321;DHT22;70785;52.570;5.638;2023-07-31T09:29:06;18.00;77.50
81321;DHT22;70785;52.570;5.638;2023-07-31T09:31:41;18.10;77.50
81321;DHT22;70785;52.570;5.638;2023-07-31T09:34:08;18.20;77.50
81321;DHT22;70785;52.570;5.638;2023-07-31T09:36:44;18.30;77.50
81321;DHT22;70785;52.570;5.638;2023-07-31T09:39:12;18.40;77.30
81321;DHT22;70785;52.570;5.638;2023-07-31T09:41:43;18.40;77.20
81321;DHT22;70785;52.570;5.638;2023-07-31T09:44:11;18.40;77.30
81321;DHT22;70785;52.570;5.638;2023-07-31T09:46:37;18.40;77.40
81321;DHT22;70785;52.570;5.638;2023-07-31T09:49:09;18.40;77.40
81321;DHT22;70785;52.570;5.638;2023-07-31T09:51:37;18.40;77.40
81321;DHT22;70785;52.570;5.638;2023-07-31T09:54:12;18.50;77.40
81321;DHT22;70785;52.570;5.638;2023-07-31T09:56:46;18.40;77.30
81321;DHT22;70785;52.570;5.638;2023-07-31T09:59:15;18.50;77.30
81321;DHT22;70785;52.570;5.638;2023-07-31T10:01:42;18.50;77.30
81321;DHT22;70785;52.570;5.638;2023-07-31T10:04:10;18.50;77.30
81321;DHT22;70785;52.570;5.638;2023-07-31T10:06:37;18.50;77.20
81321;DHT22;70785;52.570;5.638;2023-07-31T10:09:06;18.60;77.30
81321;DHT22;70785;52.570;5.638;2023-07-31T10:11:41;18.70;77.20
81321;DHT22;70785;52.570;5.638;2023-07-31T10:14:07;18.90;77.20
81321;DHT22;70785;52.570;5.638;2023-07-31T10:16:37;19.00;76.90
81321;DHT22;70785;52.570;5.638;2023-07-31T10:19:04;19.00;76.70
81321;DHT22;70785;52.570;5.638;2023-07-31T10:21:31;18.90;76.60
81321;DHT22;70785;52.570;5.638;2023-07-31T10:24:03;18.90;76.70
81321;DHT22;70785;52.570;5.638;2023-07-31T10:26:31;18.80;76.70
81321;DHT22;70785;52.570;5.638;2023-07-31T10:28:58;18.80;76.80
81321;DHT22;70785;52.570;5.638;2023-07-31T10:31:24;18.70;76.80
81321;DHT22;70785;52.570;5.638;2023-07-31T10:33:55;18.70;76.80
81321;DHT22;70785;52.570;5.638;2023-07-31T10:36:23;18.70;77.00
81321;DHT22;70785;52.570;5.638;2023-07-31T10:38:49;18.80;77.00
81321;DHT22;70785;52.570;5.638;2023-07-31T10:41:16;18.90;76.80
81321;DHT22;70785;52.570;5.638;2023-07-31T10:43:43;18.90;76.70
81321;DHT22;70785;52.570;5.638;2023-07-31T10:46:13;18.90;76.80
81321;DHT22;70785;52.570;5.638;2023-07-31T10:48:40;18.90;76.80
81321;DHT22;70785;52.570;5.638;2023-07-31T10:51:11;19.00;76.90
81321;DHT22;70785;52.570;5.638;2023-07-31T10:53:39;19.10;76.70
81321;DHT22;70785;52.570;5.638;2023-07-31T10:56:07;19.20;76.70
81321;DHT22;70785;52.570;5.638;2023-07-31T10:58:34;19.30;76.50
81321;DHT22;70785;52.570;5.638;2023-07-31T11:01:03;19.30;76.50
81321;DHT22;70785;52.570;5.638;2023-07-31T11:03:50;19.30;76.60
81321;DHT22;70785;52.570;5.638;2023-07-31T11:06:18;19.40;76.20
81321;DHT22;70785;52.570;5.638;2023-07-31T11:08:49;19.40;76.10
81321;DHT22;70785;52.570;5.638;2023-07-31T11:11:17;19.40;76.10
81321;DHT22;70785;52.570;5.638;2023-07-31T11:16:13;19.70;75.90
81321;DHT22;70785;52.570;5.638;2023-07-31T11:18:41;19.80;75.80
81321;DHT22;70785;52.570;5.638;2023-07-31T11:23:56;19.90;75.40
81321;DHT22;70785;52.570;5.638;2023-07-31T11:26:23;19.70;75.60
81321;DHT22;70785;52.570;5.638;2023-07-31T11:28:50;19.70;75.60
81321;DHT22;70785;52.570;5.638;2023-07-31T11:31:17;19.50;75.50
81321;DHT22;70785;52.570;5.638;2023-07-31T11:33:44;19.50;75.70
81321;DHT22;70785;52.570;5.638;2023-07-31T11:36:20;19.60;75.80
81321;DHT22;70785;52.570;5.638;2023-07-31T11:38:47;19.70;75.50
81321;DHT22;70785;52.570;5.638;2023-07-31T11:41:15;19.90;75.30
81321;DHT22;70785;52.570;5.638;2023-07-31T11:43:42;20.00;75.30
81321;DHT22;70785;52.570;5.638;2023-07-31T11:46:09;20.10;75.10
81321;DHT22;70785;52.570;5.638;2023-07-31T11:48:36;20.20;74.80
81321;DHT22;70785;52.570;5.638;2023-07-31T11:51:08;20.30;74.60
81321;DHT22;70785;52.570;5.638;2023-07-31T11:53:38;20.40;74.30
81321;DHT22;70785;52.570;5.638;2023-07-31T11:56:10;20.50;74.20
81321;DHT22;70785;52.570;5.638;2023-07-31T11:58:38;20.60;74.20
81321;DHT22;70785;52.570;5.638;2023-07-31T12:01:05;20.60;73.80
81321;DHT22;70785;52.570;5.638;2023-07-31T12:03:32;20.70;73.60
81321;DHT22;70785;52.570;5.638;2023-07-31T12:06:00;20.70;73.30
81321;DHT22;70785;52.570;5.638;2023-07-31T12:08:26;20.70;73.30
81321;DHT22;70785;52.570;5.638;2023-07-31T12:10:53;20.70;73.10
81321;DHT22;70785;52.570;5.638;2023-07-31T12:13:25;20.70;73.10
81321;DHT22;70785;52.570;5.638;2023-07-31T12:15:59;20.60;73.00
81321;DHT22;70785;52.570;5.638;2023-07-31T12:18:29;20.70;72.70
81321;DHT22;70785;52.570;5.638;2023-07-31T12:20:57;20.70;72.50
81321;DHT22;70785;52.570;5.638;2023-07-31T12:23:29;20.80;72.40
81321;DHT22;70785;52.570;5.638;2023-07-31T12:26:04;20.80;72.30
81321;DHT22;70785;52.570;5.638;2023-07-31T12:28:32;20.70;72.20
81321;DHT22;70785;52.570;5.638;2023-07-31T12:31:00;20.80;72.20
81321;DHT22;70785;52.570;5.638;2023-07-31T12:33:35;20.90;72.40
81321;DHT22;70785;52.570;5.638;2023-07-31T12:36:07;20.80;72.00
81321;DHT22;70785;52.570;5.638;2023-07-31T12:38:33;20.70;72.00
81321;DHT22;70785;52.570;5.638;2023-07-31T12:40:59;20.50;72.20
81321;DHT22;70785;52.570;5.638;2023-07-31T12:43:25;20.30;72.40
81321;DHT22;70785;52.570;5.638;2023-07-31T12:45:53;20.30;72.50
81321;DHT22;70785;52.570;5.638;2023-07-31T12:48:19;20.30;72.50
81321;DHT22;70785;52.570;5.638;2023-07-31T12:50:45;20.30;72.60
81321;DHT22;70785;52.570;5.638;2023-07-31T12:53:11;20.30;72.50
81321;DHT22;70785;52.570;5.638;2023-07-31T12:55:38;20.30;72.50
81321;DHT22;70785;52.570;5.638;2023-07-31T12:58:04;20.30;72.60
81321;DHT22;70785;52.570;5.638;2023-07-31T13:00:30;20.30;72.50
81321;DHT22;70785;52.570;5.638;2023-07-31T13:02:56;20.30;72.60
81321;DHT22;70785;52.570;5.638;2023-07-31T13:05:22;20.30;72.70
81321;DHT22;70785;52.570;5.638;2023-07-31T13:07:49;20.30;72.70
81321;DHT22;70785;52.570;5.638;2023-07-31T13:10:15;20.40;72.60
81321;DHT22;70785;52.570;5.638;2023-07-31T13:12:41;20.40;72.50
81321;DHT22;70785;52.570;5.638;2023-07-31T13:15:07;20.40;72.40
81321;DHT22;70785;52.570;5.638;2023-07-31T13:17:33;20.50;72.50
81321;DHT22;70785;52.570;5.638;2023-07-31T13:20:00;20.60;72.20
81321;DHT22;70785;52.570;5.638;2023-07-31T13:22:26;20.80;72.00
81321;DHT22;70785;52.570;5.638;2023-07-31T13:24:52;20.90;71.60
81321;DHT22;70785;52.570;5.638;2023-07-31T13:27:18;20.90;71.30
81321;DHT22;70785;52.570;5.638;2023-07-31T13:29:51;20.80;71.20
81321;DHT22;70785;52.570;5.638;2023-07-31T13:32:17;20.70;71.10
81321;DHT22;70785;52.570;5.638;2023-07-31T13:34:44;20.60;71.20
81321;DHT22;70785;52.570;5.638;2023-07-31T13:37:10;20.50;71.50
81321;DHT22;70785;52.570;5.638;2023-07-31T13:39:36;20.50;71.50
81321;DHT22;70785;52.570;5.638;2023-07-31T13:42:03;20.50;71.40
81321;DHT22;70785;52.570;5.638;2023-07-31T13:44:32;20.40;71.70
81321;DHT22;70785;52.570;5.638;2023-07-31T13:46:59;20.50;71.70
81321;DHT22;70785;52.570;5.638;2023-07-31T13:49:26;20.60;71.60
81321;DHT22;70785;52.570;5.638;2023-07-31T13:51:52;20.80;71.70
81321;DHT22;70785;52.570;5.638;2023-07-31T13:54:18;20.90;71.30
81321;DHT22;70785;52.570;5.638;2023-07-31T13:56:45;21.00;71.10
81321;DHT22;70785;52.570;5.638;2023-07-31T13:59:11;21.00;71.10
81321;DHT22;70785;52.570;5.638;2023-07-31T14:01:37;21.00;71.10
81321;DHT22;70785;52.570;5.638;2023-07-31T14:04:03;21.00;71.10
81321;DHT22;70785;52.570;5.638;2023-07-31T14:06:30;20.90;70.90
81321;DHT22;70785;52.570;5.638;2023-07-31T14:08:56;20.80;71.10
81321;DHT22;70785;52.570;5.638;2023-07-31T14:11:22;20.80;71.10
81321;DHT22;70785;52.570;5.638;2023-07-31T14:13:50;20.60;70.90
81321;DHT22;70785;52.570;5.638;2023-07-31T14:16:16;20.50;71.00
81321;DHT22;70785;52.570;5.638;2023-07-31T14:18:43;20.50;71.20
81321;DHT22;70785;52.570;5.638;2023-07-31T14:21:12;20.40;71.30
81321;DHT22;70785;52.570;5.638;2023-07-31T14:23:38;20.30;71.50
81321;DHT22;70785;52.570;5.638;2023-07-31T14:26:04;20.30;71.50
81321;DHT22;70785;52.570;5.638;2023-07-31T14:28:30;20.30;71.50
81321;DHT22;70785;52.570;5.638;2023-07-31T14:30:56;20.30;71.40
81321;DHT22;70785;52.570;5.638;2023-07-31T14:33:22;20.30;71.50
81321;DHT22;70785;52.570;5.638;2023-07-31T14:35:48;20.20;71.70
81321;DHT22;70785;52.570;5.638;2023-07-31T14:38:14;20.20;71.80
81321;DHT22;70785;52.570;5.638;2023-07-31T14:40:41;20.20;71.90
81321;DHT22;70785;52.570;5.638;2023-07-31T14:43:07;20.10;72.00
81321;DHT22;70785;52.570;5.638;2023-07-31T14:45:34;20.00;72.10
81321;DHT22;70785;52.570;5.638;2023-07-31T14:48:00;20.00;72.30
81321;DHT22;70785;52.570;5.638;2023-07-31T14:50:26;19.80;72.50
81321;DHT22;70785;52.570;5.638;2023-07-31T14:52:52;19.70;72.70
81321;DHT22;70785;52.570;5.638;2023-07-31T14:55:19;19.60;72.90
81321;DHT22;70785;52.570;5.638;2023-07-31T14:57:45;19.50;73.00
81321;DHT22;70785;52.570;5.638;2023-07-31T15:00:11;19.50;73.20
81321;DHT22;70785;52.570;5.638;2023-07-31T15:02:38;19.50;73.30
81321;DHT22;70785;52.570;5.638;2023-07-31T15:05:04;19.40;73.40
81321;DHT22;70785;52.570;5.638;2023-07-31T15:07:32;19.40;73.50
81321;DHT22;70785;52.570;5.638;2023-07-31T15:09:58;19.30;73.70
81321;DHT22;70785;52.570;5.638;2023-07-31T15:12:25;19.20;73.90
81321;DHT22;70785;52.570;5.638;2023-07-31T15:14:51;19.20;74.10
81321;DHT22;70785;52.570;5.638;2023-07-31T15:17:18;19.20;74.20
81321;DHT22;70785;52.570;5.638;2023-07-31T15:19:44;19.30;74.40
81321;DHT22;70785;52.570;5.638;2023-07-31T15:22:10;19.40;74.30
81321;DHT22;70785;52.570;5.638;2023-07-31T15:24:36;19.40;74.20
81321;DHT22;70785;52.570;5.638;2023-07-31T15:27:03;19.40;74.10
81321;DHT22;70785;52.570;5.638;2023-07-31T15:29:29;19.40;74.10
81321;DHT22;70785;52.570;5.638;2023-07-31T15:31:56;19.40;74.10
81321;DHT22;70785;52.570;5.638;2023-07-31T15:34:22;19.40;74.20
81321;DHT22;70785;52.570;5.638;2023-07-31T15:36:48;19.40;74.20